createdAt,value
2022-08-22T00:00:21.656Z,19.00
2022-08-22T00:02:46.314Z,21.40
2022-08-22T00:05:26.218Z,19.00
2022-08-22T00:10:32.058Z,18.80
2022-08-22T00:15:44.303Z,18.80
2022-08-22T00:20:52.685Z,18.70
2022-08-22T00:26:26.458Z,18.60
2022-08-22T00:31:43.373Z,18.60
2022-08-22T00:37:17.318Z,18.50
2022-08-22T00:42:29.314Z,18.40
2022-08-22T00:47:45.903Z,18.40
2022-08-22T00:52:55.379Z,18.30
2022-08-22T00:58:18.891Z,18.20
2022-08-22T01:03:39.541Z,18.10
2022-08-22T01:09:18.980Z,18.00
2022-08-22T01:14:35.692Z,18.00
2022-08-22T01:20:05.178Z,17.80
2022-08-22T01:25:40.743Z,17.80
2022-08-22T01:31:15.247Z,17.70
2022-08-22T01:36:40.414Z,17.70
2022-08-22T01:41:57.405Z,17.60
2022-08-22T01:47:39.260Z,17.60
2022-08-22T01:52:46.286Z,17.50
2022-08-22T01:58:01.888Z,17.50
2022-08-22T02:03:25.039Z,17.50
2022-08-22T02:08:49.801Z,17.50
2022-08-22T02:14:01.205Z,17.40
2022-08-22T02:19:15.169Z,17.30
2022-08-22T02:24:29.230Z,17.30
2022-08-22T02:29:46.531Z,17.20
2022-08-22T02:35:03.655Z,17.20
2022-08-22T02:40:32.894Z,17.10
2022-08-22T02:45:46.490Z,17.20
2022-08-22T02:50:59.043Z,17.10
2022-08-22T02:56:14.700Z,17.10
2022-08-22T03:01:29.056Z,17.00
2022-08-22T03:06:40.251Z,16.90
2022-08-22T03:12:09.182Z,16.90
2022-08-22T03:17:38.409Z,16.80
2022-08-22T03:22:46.221Z,16.70
2022-08-22T03:27:56.450Z,16.60
2022-08-22T03:33:19.021Z,16.60
2022-08-22T03:38:28.522Z,16.50
2022-08-22T03:43:54.570Z,16.50
2022-08-22T03:49:46.846Z,16.40
2022-08-22T03:55:07.932Z,16.40
2022-08-22T04:00:27.851Z,16.30
2022-08-22T04:05:33.864Z,16.20
2022-08-22T04:11:03.597Z,16.20
2022-08-22T04:16:43.053Z,16.10
2022-08-22T04:22:20.040Z,16.00
2022-08-22T04:27:34.204Z,16.00
2022-08-22T04:32:47.408Z,15.90
2022-08-22T04:38:08.991Z,15.90
2022-08-22T04:43:23.397Z,15.90
2022-08-22T04:48:59.226Z,15.80
2022-08-22T04:54:42.056Z,15.80
2022-08-22T04:59:44.259Z,15.70
2022-08-22T05:04:49.688Z,15.70
2022-08-22T05:10:20.765Z,15.70
2022-08-22T05:15:33.024Z,15.70
2022-08-22T05:20:37.405Z,15.60
2022-08-22T05:25:42.839Z,15.70
2022-08-22T05:30:47.445Z,15.70
2022-08-22T05:36:08.091Z,15.70
2022-08-22T05:41:16.724Z,15.70
2022-08-22T05:46:41.720Z,15.80
2022-08-22T05:52:08.084Z,15.80
2022-08-22T05:57:39.528Z,15.90
2022-08-22T06:02:52.223Z,15.90
2022-08-22T06:08:02.849Z,16.10
2022-08-22T06:13:13.614Z,16.20
2022-08-22T06:18:20.977Z,16.30
2022-08-22T06:23:36.392Z,16.40
2022-08-22T06:28:46.712Z,16.50
2022-08-22T06:34:03.292Z,16.60
2022-08-22T06:39:10.582Z,16.70
2022-08-22T06:44:16.140Z,16.70
2022-08-22T06:49:18.812Z,16.90
2022-08-22T06:54:26.632Z,17.00
2022-08-22T06:59:31.773Z,17.10
2022-08-22T07:04:33.615Z,17.20
2022-08-22T07:09:37.761Z,17.40
2022-08-22T07:14:46.989Z,17.50
2022-08-22T07:19:57.066Z,17.70
2022-08-22T07:25:14.416Z,17.80
2022-08-22T07:30:27.504Z,17.90
2022-08-22T07:35:34.788Z,18.10
2022-08-22T07:40:39.551Z,18.20
2022-08-22T07:45:49.740Z,18.40
2022-08-22T07:50:58.763Z,18.50
2022-08-22T07:56:03.211Z,18.60
2022-08-22T08:01:07.753Z,18.80
2022-08-22T08:06:10.152Z,19.00
2022-08-22T08:11:16.897Z,19.20
2022-08-22T08:16:24.885Z,19.40
2022-08-22T08:21:35.612Z,19.70
2022-08-22T08:27:03.547Z,19.80
2022-08-22T08:32:09.498Z,20.00
2022-08-22T08:37:29.673Z,20.10
2022-08-22T08:42:31.669Z,20.10
2022-08-22T08:47:51.764Z,20.20
2022-08-22T08:53:29.163Z,20.40
2022-08-22T08:58:40.536Z,20.60
2022-08-22T09:04:15.184Z,20.90
2022-08-22T09:09:36.221Z,21.20
2022-08-22T09:14:53.168Z,21.50
2022-08-22T09:20:22.015Z,21.80
2022-08-22T09:25:49.604Z,21.90
2022-08-22T09:37:23.602Z,22.40
2022-08-22T09:40:16.019Z,22.10
2022-08-22T09:43:20.987Z,22.70
2022-08-22T09:48:50.490Z,23.00
2022-08-22T09:54:19.277Z,23.30
2022-08-22T09:59:40.592Z,23.40
2022-08-22T10:04:51.191Z,23.60
2022-08-22T10:10:04.060Z,23.80
2022-08-22T10:15:16.103Z,23.90
2022-08-22T10:20:28.580Z,24.00
2022-08-22T10:25:44.830Z,24.10
2022-08-22T10:30:57.153Z,24.30
2022-08-22T10:36:13.360Z,24.50
2022-08-22T10:41:24.348Z,24.70
2022-08-22T10:46:42.194Z,24.80
2022-08-22T10:51:49.646Z,24.90
2022-08-22T10:57:07.918Z,25.00
2022-08-22T11:02:27.456Z,25.20
2022-08-22T11:07:29.400Z,25.20
2022-08-22T11:12:34.994Z,25.30
2022-08-22T11:18:14.627Z,25.50
2022-08-22T11:23:33.793Z,25.60
2022-08-22T11:29:11.271Z,25.70
2022-08-22T11:34:35.601Z,26.00
2022-08-22T11:40:19.240Z,26.00
2022-08-22T11:45:27.828Z,26.20
2022-08-22T11:51:25.044Z,26.30
2022-08-22T11:56:34.403Z,26.50
2022-08-22T12:01:42.670Z,26.70
2022-08-22T12:06:56.869Z,26.90
2022-08-22T12:12:04.869Z,27.10
2022-08-22T12:17:55.526Z,27.40
2022-08-22T12:23:04.578Z,27.70
2022-08-22T12:28:38.807Z,28.10
2022-08-22T12:33:52.202Z,28.30
2022-08-22T12:39:15.544Z,28.30
2022-08-22T12:44:29.487Z,28.20
2022-08-22T12:49:56.564Z,28.00
2022-08-22T12:55:16.800Z,28.00
2022-08-22T13:00:30.326Z,28.10
2022-08-22T13:05:34.225Z,28.30
2022-08-22T13:10:52.281Z,28.50
2022-08-22T13:16:01.185Z,28.50
2022-08-22T13:21:09.479Z,28.60
2022-08-22T13:26:33.672Z,28.40
2022-08-22T13:31:42.219Z,28.30
2022-08-22T13:36:51.910Z,28.20
2022-08-22T13:42:00.111Z,28.20
2022-08-22T13:47:14.320Z,28.40
2022-08-22T13:52:38.746Z,28.50
2022-08-22T13:57:51.931Z,28.80
2022-08-22T14:03:14.993Z,28.90
2022-08-22T14:08:40.945Z,28.80
2022-08-22T14:13:49.727Z,28.70
2022-08-22T14:18:55.827Z,28.60
2022-08-22T14:24:25.411Z,28.60
2022-08-22T14:29:34.191Z,28.50
2022-08-22T14:34:45.469Z,28.40
2022-08-22T14:39:55.849Z,28.40
2022-08-22T14:45:13.328Z,28.30
2022-08-22T14:50:42.276Z,28.20
2022-08-22T14:55:54.823Z,28.10
2022-08-22T15:01:06.574Z,28.10
2022-08-22T15:06:29.042Z,28.10
2022-08-22T15:11:32.205Z,28.20
2022-08-22T15:16:36.753Z,28.30
2022-08-22T15:21:42.347Z,28.40
2022-08-22T15:26:55.653Z,28.70
2022-08-22T15:32:03.215Z,28.70
2022-08-22T15:37:20.761Z,28.60
2022-08-22T15:42:30.564Z,28.60
2022-08-22T15:47:39.569Z,28.60
2022-08-22T15:53:16.303Z,28.60
2022-08-22T15:58:23.908Z,28.70
2022-08-22T16:03:31.166Z,28.80
2022-08-22T16:08:36.284Z,28.90
2022-08-22T16:13:41.768Z,28.90
2022-08-22T16:18:43.577Z,28.80
2022-08-22T16:23:51.554Z,28.60
2022-08-22T16:28:59.468Z,28.50
2022-08-22T16:34:16.662Z,28.40
2022-08-22T16:39:21.416Z,28.20
2022-08-22T16:44:29.031Z,28.10
2022-08-22T16:49:34.113Z,28.00
2022-08-22T16:54:49.429Z,27.90
2022-08-22T17:00:01.791Z,27.80
2022-08-22T17:05:15.656Z,27.70
2022-08-22T17:10:23.371Z,27.60
2022-08-22T17:15:35.243Z,27.50
2022-08-22T17:21:05.120Z,27.40
2022-08-22T17:26:22.201Z,27.30
2022-08-22T17:31:53.922Z,27.20
2022-08-22T17:37:38.940Z,27.20
2022-08-22T17:42:40.646Z,27.20
2022-08-22T17:48:01.526Z,27.10
2022-08-22T17:53:10.899Z,27.10
2022-08-22T17:58:31.667Z,27.00
2022-08-22T18:03:49.195Z,27.00
2022-08-22T18:09:16.272Z,26.90
2022-08-22T18:14:49.630Z,26.80
2022-08-22T18:20:30.478Z,26.70
2022-08-22T18:25:41.798Z,26.60
2022-08-22T18:31:08.558Z,26.50
2022-08-22T18:36:22.625Z,26.50
2022-08-22T18:41:45.375Z,26.40
2022-08-22T18:46:52.912Z,26.30
2022-08-22T18:52:09.526Z,26.20
2022-08-22T18:57:42.558Z,26.10
2022-08-22T19:03:03.639Z,25.90
2022-08-22T19:08:08.688Z,25.80
2022-08-22T19:13:43.399Z,25.60
2022-08-22T19:18:52.110Z,25.50
2022-08-22T19:23:55.631Z,25.30
2022-08-22T19:29:10.144Z,25.20
2022-08-22T19:34:30.756Z,25.10
2022-08-22T19:39:41.880Z,24.90
2022-08-22T19:44:45.737Z,24.80
2022-08-22T19:49:50.479Z,24.70
2022-08-22T19:55:10.277Z,24.60
2022-08-22T20:00:18.224Z,24.50
2022-08-22T20:05:35.053Z,24.40
2022-08-22T20:10:48.856Z,24.40
2022-08-22T20:16:05.245Z,24.30
2022-08-22T20:21:07.014Z,24.20
2022-08-22T20:26:09.011Z,24.10
2022-08-22T20:31:19.718Z,24.00
2022-08-22T20:36:28.334Z,23.90
2022-08-22T20:41:39.325Z,23.80
2022-08-22T20:46:43.595Z,23.80
2022-08-22T20:51:58.538Z,23.60
2022-08-22T20:57:03.498Z,23.50
2022-08-22T21:02:20.244Z,23.40
2022-08-22T21:07:25.663Z,23.30
2022-08-22T21:12:27.735Z,23.10
2022-08-22T21:17:39.096Z,23.00
2022-08-22T21:22:41.411Z,22.90
2022-08-22T21:27:47.696Z,22.80
2022-08-22T21:32:55.032Z,22.70
2022-08-22T21:37:59.572Z,22.60
2022-08-22T21:43:11.180Z,22.50
2022-08-22T21:48:40.629Z,22.40
2022-08-22T21:53:42.299Z,22.30
2022-08-22T21:58:46.188Z,22.30
2022-08-22T22:03:47.933Z,22.30
2022-08-22T22:08:49.871Z,22.30
2022-08-22T22:13:51.880Z,22.20
2022-08-22T22:18:54.224Z,22.20
2022-08-22T22:23:58.416Z,22.10
2022-08-22T22:29:02.088Z,22.00
2022-08-22T22:34:03.788Z,21.90
2022-08-22T22:39:08.179Z,21.90
2022-08-22T22:44:09.851Z,21.80
2022-08-22T22:49:11.567Z,21.70
2022-08-22T22:54:13.336Z,21.60
2022-08-22T22:59:18.280Z,21.50
2022-08-22T23:04:26.385Z,21.40
2022-08-22T23:09:38.219Z,21.30
2022-08-22T23:14:43.125Z,21.20
2022-08-22T23:19:46.225Z,21.00
2022-08-22T23:24:50.438Z,20.90
2022-08-22T23:29:52.409Z,20.90
2022-08-22T23:34:54.285Z,20.80
2022-08-22T23:39:56.086Z,20.70
2022-08-22T23:44:58.158Z,20.70
2022-08-22T23:50:05.734Z,20.50
2022-08-22T23:55:09.131Z,20.40
